< < Back
Terminal Aerodrome Forecast


Current Version              Previous Versions:   1  2  3  4  5  6  7  8  9  

Terminal Aerodrome Forecast

352
FTUS42 KMLB 310500 RRA
TAFDAB
TAF
KDAB 310541Z 3106/0106 00000KT P6SM SCT250
     FM311400 12004KT P6SM SCT025
     FM311800 10008KT P6SM SCT035
     FM010000 13003KT P6SM FEW050 SCT250=

Latest METAR

307
SAUS80 KWBC 310700 RRA
MTRDAB
METAR KDAB 310653Z 00000KT 8SM CLR 24/23 A2997 RMK AO2 SLP148
T02390228


USA.gov is the U.S. government's official web portal to all federal, state and local government web resources and services.